createdAt,value
2022-07-29T00:00:10.878Z,19.28
2022-07-29T00:02:44.140Z,19.26
2022-07-29T00:04:57.310Z,19.25
2022-07-29T00:07:10.461Z,19.21
2022-07-29T00:09:24.985Z,19.23
2022-07-29T00:11:38.026Z,19.25
2022-07-29T00:13:51.217Z,19.27
2022-07-29T00:16:05.048Z,19.37
2022-07-29T00:18:18.359Z,19.40
2022-07-29T00:20:31.701Z,19.40
2022-07-29T00:22:46.430Z,19.40
2022-07-29T00:24:59.423Z,19.35
2022-07-29T00:27:12.510Z,19.37
2022-07-29T00:29:34.404Z,19.43
2022-07-29T00:31:45.290Z,19.49
2022-07-29T00:33:59.070Z,19.43
2022-07-29T00:36:12.560Z,19.26
2022-07-29T00:38:26.482Z,19.02
2022-07-29T00:40:39.357Z,18.91
2022-07-29T00:42:57.242Z,18.88
2022-07-29T00:45:11.087Z,18.79
2022-07-29T00:47:24.001Z,18.66
2022-07-29T00:49:36.885Z,18.50
2022-07-29T00:51:50.067Z,18.48
2022-07-29T00:54:03.223Z,18.35
2022-07-29T00:56:16.342Z,18.21
2022-07-29T00:58:30.772Z,18.04
2022-07-29T01:00:45.484Z,17.90
2022-07-29T01:02:58.817Z,17.75
2022-07-29T01:05:14.806Z,17.66
2022-07-29T01:07:28.091Z,17.63
2022-07-29T01:09:46.295Z,17.66
2022-07-29T01:12:01.513Z,17.69
2022-07-29T01:14:15.869Z,17.68
2022-07-29T01:16:40.710Z,17.64
2022-07-29T01:18:58.578Z,17.65
2022-07-29T01:21:32.451Z,17.64
2022-07-29T01:24:04.053Z,17.58
2022-07-29T01:26:37.445Z,17.48
2022-07-29T01:29:10.714Z,17.45
2022-07-29T01:31:31.842Z,17.44
2022-07-29T01:33:52.951Z,17.41
2022-07-29T01:36:10.366Z,17.39
2022-07-29T01:38:27.147Z,17.41
2022-07-29T01:40:47.459Z,17.46
2022-07-29T01:43:04.444Z,17.58
2022-07-29T01:45:21.455Z,17.64
2022-07-29T01:47:41.731Z,17.67
2022-07-29T01:49:58.973Z,17.74
2022-07-29T01:52:19.361Z,17.89
2022-07-29T01:54:39.993Z,18.06
2022-07-29T01:56:55.595Z,18.25
2022-07-29T01:59:11.070Z,18.37
2022-07-29T02:01:26.009Z,18.45
2022-07-29T02:03:40.951Z,18.48
2022-07-29T02:05:56.884Z,18.53
2022-07-29T02:08:12.227Z,18.49
2022-07-29T02:10:29.939Z,18.46
2022-07-29T02:12:50.707Z,18.45
2022-07-29T02:15:08.038Z,18.46
2022-07-29T02:17:30.747Z,18.50
2022-07-29T02:19:46.655Z,18.53
2022-07-29T02:22:03.185Z,18.55
2022-07-29T02:24:18.937Z,18.55
2022-07-29T02:26:33.695Z,18.55
2022-07-29T02:28:47.507Z,18.51
2022-07-29T02:31:05.523Z,18.48
2022-07-29T02:33:21.889Z,18.45
2022-07-29T02:35:35.476Z,18.42
2022-07-29T02:38:10.140Z,18.40
2022-07-29T02:40:23.915Z,18.39
2022-07-29T02:42:40.773Z,18.33
2022-07-29T02:44:54.392Z,18.32
2022-07-29T02:47:15.023Z,18.33
2022-07-29T02:49:39.716Z,18.30
2022-07-29T02:51:54.194Z,18.29
2022-07-29T02:54:11.193Z,18.29
2022-07-29T02:56:28.601Z,18.28
2022-07-29T02:58:47.234Z,18.27
2022-07-29T03:01:01.295Z,18.22
2022-07-29T03:03:17.522Z,18.17
2022-07-29T03:05:31.051Z,18.11
2022-07-29T03:07:44.931Z,18.06
2022-07-29T03:09:59.400Z,17.98
2022-07-29T03:12:14.893Z,17.89
2022-07-29T03:14:28.685Z,17.86
2022-07-29T03:16:42.021Z,17.79
2022-07-29T03:18:55.915Z,17.70
2022-07-29T03:21:09.787Z,17.62
2022-07-29T03:23:28.186Z,17.53
2022-07-29T03:25:48.538Z,17.42
2022-07-29T03:28:02.239Z,17.32
2022-07-29T03:30:18.354Z,17.25
2022-07-29T03:32:35.007Z,17.21
2022-07-29T03:34:48.709Z,17.16
2022-07-29T03:37:01.714Z,17.09
2022-07-29T03:39:17.141Z,17.00
2022-07-29T03:41:31.603Z,16.92
2022-07-29T03:43:49.531Z,16.88
2022-07-29T03:46:04.593Z,16.83
2022-07-29T03:48:20.736Z,16.77
2022-07-29T03:50:35.196Z,16.72
2022-07-29T03:52:48.763Z,16.65
2022-07-29T03:55:02.217Z,16.57
2022-07-29T03:57:18.080Z,16.48
2022-07-29T03:59:31.466Z,16.42
2022-07-29T04:01:46.435Z,16.38
2022-07-29T04:04:00.240Z,16.30
2022-07-29T04:06:13.956Z,16.23
2022-07-29T04:08:27.033Z,16.19
2022-07-29T04:10:39.940Z,16.17
2022-07-29T04:12:53.053Z,16.14
2022-07-29T04:15:06.358Z,16.11
2022-07-29T04:17:19.325Z,16.09
2022-07-29T04:19:32.453Z,16.08
2022-07-29T04:21:47.347Z,16.08
2022-07-29T04:24:00.337Z,16.08
2022-07-29T04:26:13.854Z,16.04
2022-07-29T04:28:26.964Z,16.03
2022-07-29T04:30:41.839Z,16.00
2022-07-29T04:32:55.265Z,15.99
2022-07-29T04:35:08.726Z,15.92
2022-07-29T04:37:21.812Z,15.87
2022-07-29T04:39:34.830Z,15.82
2022-07-29T04:41:47.790Z,15.80
2022-07-29T04:44:02.881Z,15.78
2022-07-29T04:46:16.481Z,15.75
2022-07-29T04:48:29.531Z,15.74
2022-07-29T04:50:46.436Z,15.73
2022-07-29T04:52:59.440Z,15.72
2022-07-29T04:55:13.711Z,15.70
2022-07-29T04:57:26.805Z,15.67
2022-07-29T04:59:39.769Z,15.63
2022-07-29T05:01:52.957Z,15.61
2022-07-29T05:04:06.139Z,15.60
2022-07-29T05:06:19.424Z,15.60
2022-07-29T05:08:32.498Z,15.59
2022-07-29T05:10:45.602Z,15.57
2022-07-29T05:12:58.655Z,15.54
2022-07-29T05:15:13.252Z,15.51
2022-07-29T05:17:26.409Z,15.50
2022-07-29T05:19:40.006Z,15.49
2022-07-29T05:21:53.930Z,15.49
2022-07-29T05:24:07.045Z,15.48
2022-07-29T05:26:20.237Z,15.48
2022-07-29T05:28:33.366Z,15.48
2022-07-29T05:30:46.652Z,15.48
2022-07-29T05:32:59.712Z,15.46
2022-07-29T05:35:14.727Z,15.47
2022-07-29T05:37:28.124Z,15.48
2022-07-29T05:39:48.591Z,15.46
2022-07-29T05:42:02.515Z,15.44
2022-07-29T05:44:15.856Z,15.44
2022-07-29T05:46:29.152Z,15.45
2022-07-29T05:48:42.421Z,15.44
2022-07-29T05:50:56.626Z,15.42
2022-07-29T05:53:19.365Z,15.43
2022-07-29T05:55:33.427Z,15.43
2022-07-29T05:57:47.779Z,15.43
2022-07-29T06:00:00.793Z,15.43
2022-07-29T06:02:13.838Z,15.43
2022-07-29T06:04:26.950Z,15.44
2022-07-29T06:06:40.247Z,15.46
2022-07-29T06:08:53.217Z,15.47
2022-07-29T06:11:06.492Z,15.50
2022-07-29T06:13:19.984Z,15.50
2022-07-29T06:15:33.145Z,15.51
2022-07-29T06:17:59.685Z,15.50
2022-07-29T06:20:16.493Z,15.49
2022-07-29T06:22:29.652Z,15.48
2022-07-29T06:24:46.043Z,15.48
2022-07-29T06:26:59.274Z,15.49
2022-07-29T06:29:12.910Z,15.51
2022-07-29T06:31:25.909Z,15.51
2022-07-29T06:33:38.922Z,15.52
2022-07-29T06:35:54.975Z,15.52
2022-07-29T06:38:31.516Z,15.51
2022-07-29T06:41:01.153Z,15.47
2022-07-29T06:43:14.177Z,15.45
2022-07-29T06:45:27.574Z,15.44
2022-07-29T06:47:41.609Z,15.41
2022-07-29T06:49:55.158Z,15.37
2022-07-29T06:52:08.390Z,15.36
2022-07-29T06:54:21.393Z,15.35
2022-07-29T06:56:39.434Z,15.35
2022-07-29T06:58:53.154Z,15.31
2022-07-29T07:01:09.049Z,15.29
2022-07-29T07:03:22.756Z,15.32
2022-07-29T07:05:36.003Z,15.35
2022-07-29T07:07:49.044Z,15.35
2022-07-29T07:10:02.440Z,15.32
2022-07-29T07:12:15.731Z,15.30
2022-07-29T07:14:30.190Z,15.30
2022-07-29T07:16:43.338Z,15.29
2022-07-29T07:18:56.325Z,15.28
2022-07-29T07:21:09.331Z,15.28
2022-07-29T07:23:22.357Z,15.27
2022-07-29T07:25:35.830Z,15.26
2022-07-29T07:27:49.095Z,15.25
2022-07-29T07:30:02.319Z,15.25
2022-07-29T07:32:15.344Z,15.26
2022-07-29T07:34:29.731Z,15.24
2022-07-29T07:36:42.807Z,15.20
2022-07-29T07:38:55.774Z,15.15
2022-07-29T07:41:08.740Z,15.14
2022-07-29T07:43:21.768Z,15.13
2022-07-29T07:45:36.479Z,15.10
2022-07-29T07:47:49.699Z,15.06
2022-07-29T07:50:02.639Z,15.03
2022-07-29T07:52:15.605Z,15.02
2022-07-29T07:54:28.455Z,15.01
2022-07-29T07:56:41.415Z,14.99
2022-07-29T07:58:54.502Z,14.98
2022-07-29T08:01:07.753Z,14.98
2022-07-29T08:03:21.130Z,14.96
2022-07-29T08:05:34.520Z,14.94
2022-07-29T08:07:48.085Z,14.93
2022-07-29T08:10:01.050Z,14.93
2022-07-29T08:12:14.533Z,14.92
2022-07-29T08:14:27.579Z,14.90
2022-07-29T08:16:40.868Z,14.87
2022-07-29T08:18:54.035Z,14.86
2022-07-29T08:21:07.169Z,14.84
2022-07-29T08:23:21.171Z,14.82
2022-07-29T08:25:34.720Z,14.80
2022-07-29T08:27:51.873Z,14.75
2022-07-29T08:30:04.793Z,14.72
2022-07-29T08:32:36.896Z,14.72
2022-07-29T08:34:48.441Z,14.72
2022-07-29T08:37:01.322Z,14.72
2022-07-29T08:39:14.333Z,14.72
2022-07-29T08:41:27.797Z,14.73
2022-07-29T08:43:40.768Z,14.72
2022-07-29T08:45:55.130Z,14.72
2022-07-29T08:48:08.568Z,14.72
2022-07-29T08:50:23.153Z,14.72
2022-07-29T08:52:39.990Z,14.72
2022-07-29T08:54:53.717Z,14.72
2022-07-29T08:57:07.282Z,14.72
2022-07-29T08:59:23.979Z,14.73
2022-07-29T09:01:42.795Z,14.73
2022-07-29T09:04:03.421Z,14.74
2022-07-29T09:06:21.527Z,14.75
2022-07-29T09:08:35.045Z,14.76
2022-07-29T09:10:48.759Z,14.76
2022-07-29T09:13:01.836Z,14.74
2022-07-29T09:15:15.692Z,14.76
2022-07-29T09:17:46.870Z,14.78
2022-07-29T09:20:16.590Z,14.79
2022-07-29T09:22:41.711Z,14.82
2022-07-29T09:24:56.783Z,14.82
2022-07-29T09:27:12.134Z,14.82
2022-07-29T09:29:26.673Z,14.84
2022-07-29T09:31:43.562Z,14.85
2022-07-29T09:33:59.315Z,14.84
2022-07-29T09:36:13.967Z,14.85
2022-07-29T09:38:26.923Z,14.86
2022-07-29T09:40:39.886Z,14.87
2022-07-29T09:42:53.503Z,14.85
2022-07-29T09:45:06.649Z,14.86
2022-07-29T09:47:20.222Z,14.88
2022-07-29T09:49:33.296Z,14.91
2022-07-29T09:51:46.523Z,14.92
2022-07-29T09:53:59.513Z,14.93
2022-07-29T09:56:12.825Z,14.95
2022-07-29T09:58:26.648Z,14.99
2022-07-29T10:00:49.571Z,15.02
2022-07-29T10:03:07.443Z,15.04
2022-07-29T10:05:36.816Z,15.05
2022-07-29T10:07:57.710Z,15.03
2022-07-29T10:10:11.696Z,15.03
2022-07-29T10:12:24.670Z,15.04
2022-07-29T10:14:38.458Z,15.03
2022-07-29T10:16:51.674Z,15.02
2022-07-29T10:19:05.195Z,15.03
2022-07-29T10:21:35.074Z,15.03
2022-07-29T10:23:49.891Z,15.03
2022-07-29T10:26:03.435Z,15.04
2022-07-29T10:28:16.938Z,15.04
2022-07-29T10:30:31.778Z,15.03
2022-07-29T10:32:58.619Z,15.04
2022-07-29T10:35:23.794Z,15.03
2022-07-29T10:37:48.305Z,15.02
2022-07-29T10:40:30.323Z,15.02
2022-07-29T10:42:47.310Z,15.03
2022-07-29T10:45:01.731Z,15.04
2022-07-29T10:47:23.762Z,15.03
2022-07-29T10:49:36.932Z,15.03
2022-07-29T10:52:06.037Z,15.04
2022-07-29T10:54:19.537Z,15.04
2022-07-29T10:56:35.496Z,15.05
2022-07-29T10:58:52.679Z,15.08
2022-07-29T11:01:37.201Z,15.08
2022-07-29T11:03:57.405Z,15.06
2022-07-29T11:06:10.949Z,15.05
2022-07-29T11:08:29.720Z,15.03
2022-07-29T11:10:42.793Z,15.02
2022-07-29T11:12:57.957Z,15.02
2022-07-29T11:15:19.162Z,15.01
2022-07-29T11:17:47.072Z,14.98
2022-07-29T11:20:45.495Z,14.95
2022-07-29T11:22:55.823Z,14.95
2022-07-29T11:25:42.958Z,14.90
2022-07-29T11:27:56.178Z,14.87
2022-07-29T11:30:14.621Z,14.86
2022-07-29T11:32:29.670Z,14.85
2022-07-29T11:34:43.625Z,14.84
2022-07-29T11:37:29.157Z,14.85
2022-07-29T11:39:44.156Z,14.85
2022-07-29T11:42:28.323Z,14.85
2022-07-29T11:45:08.836Z,14.82
2022-07-29T11:47:40.480Z,14.82
2022-07-29T11:49:54.977Z,14.82
2022-07-29T11:52:14.882Z,14.84
2022-07-29T11:54:57.223Z,14.84
2022-07-29T11:57:11.097Z,14.85
2022-07-29T11:59:32.962Z,14.87
2022-07-29T12:02:18.528Z,14.87
2022-07-29T12:04:34.161Z,14.87
2022-07-29T12:06:47.118Z,14.86
2022-07-29T12:09:02.373Z,14.86
2022-07-29T12:11:24.799Z,14.87
2022-07-29T12:13:45.316Z,14.89
2022-07-29T12:16:02.664Z,14.91
2022-07-29T12:18:24.290Z,14.92
2022-07-29T12:20:37.829Z,14.94
2022-07-29T12:22:51.514Z,14.94
2022-07-29T12:25:32.458Z,14.92
2022-07-29T12:27:43.033Z,14.89
2022-07-29T12:30:05.523Z,14.86
2022-07-29T12:32:19.521Z,14.84
2022-07-29T12:34:34.501Z,14.83
2022-07-29T12:36:47.797Z,14.80
2022-07-29T12:39:01.173Z,14.78
2022-07-29T12:41:14.646Z,14.77
2022-07-29T12:43:28.622Z,14.76
2022-07-29T12:45:41.879Z,14.75
2022-07-29T12:48:01.368Z,14.75
2022-07-29T12:50:23.361Z,14.74
2022-07-29T12:52:40.142Z,14.75
2022-07-29T12:54:55.965Z,14.75
2022-07-29T12:57:09.098Z,14.76
2022-07-29T12:59:33.092Z,14.77
2022-07-29T13:01:47.096Z,14.77
2022-07-29T13:04:02.663Z,14.77
2022-07-29T13:06:35.745Z,14.76
2022-07-29T13:09:09.192Z,14.77
2022-07-29T13:14:06.584Z,14.79
2022-07-29T13:16:21.158Z,14.78
2022-07-29T13:18:39.398Z,14.75
2022-07-29T13:20:52.364Z,14.74
2022-07-29T13:23:05.929Z,14.74
2022-07-29T13:25:18.874Z,14.74
2022-07-29T13:27:34.235Z,14.74
2022-07-29T13:29:47.207Z,14.75
2022-07-29T13:32:00.603Z,14.74
2022-07-29T13:34:13.963Z,14.74
2022-07-29T13:36:27.028Z,14.76
2022-07-29T13:38:39.868Z,14.81
2022-07-29T13:40:52.810Z,14.83
2022-07-29T13:43:05.830Z,14.85
2022-07-29T13:45:18.888Z,14.85
2022-07-29T13:47:33.277Z,14.86
2022-07-29T13:49:46.687Z,14.87
2022-07-29T13:52:00.197Z,14.89
2022-07-29T13:54:13.685Z,14.92
2022-07-29T13:56:26.642Z,14.93
2022-07-29T13:58:40.050Z,14.94
2022-07-29T14:00:53.049Z,14.94
2022-07-29T14:03:06.148Z,14.94
2022-07-29T14:05:19.197Z,14.94
2022-07-29T14:07:32.172Z,14.93
2022-07-29T14:09:45.342Z,14.97
2022-07-29T14:11:58.577Z,14.99
2022-07-29T14:14:12.777Z,14.99
2022-07-29T14:16:25.801Z,14.99
2022-07-29T14:18:38.908Z,15.00
2022-07-29T14:20:52.812Z,15.01
2022-07-29T14:23:05.779Z,15.02
2022-07-29T14:25:19.118Z,15.03
2022-07-29T14:27:37.763Z,15.03
2022-07-29T14:29:51.446Z,15.04
2022-07-29T14:32:04.646Z,15.08
2022-07-29T14:34:17.970Z,15.10
2022-07-29T14:36:31.460Z,15.13
2022-07-29T14:38:44.641Z,15.15
2022-07-29T14:40:57.808Z,15.18
2022-07-29T14:43:10.802Z,15.21
2022-07-29T14:45:23.782Z,15.20
2022-07-29T14:47:36.807Z,15.20
2022-07-29T14:49:49.796Z,15.22
2022-07-29T14:52:02.658Z,15.27
2022-07-29T14:54:15.711Z,15.33
2022-07-29T14:56:37.529Z,15.36
2022-07-29T14:58:51.859Z,15.39
2022-07-29T15:01:05.325Z,15.42
2022-07-29T15:03:23.911Z,15.43
2022-07-29T15:05:37.257Z,15.42
2022-07-29T15:07:50.253Z,15.44
2022-07-29T15:10:03.256Z,15.48
2022-07-29T15:12:16.534Z,15.49
2022-07-29T15:14:29.513Z,15.48
2022-07-29T15:16:46.722Z,15.50
2022-07-29T15:19:01.601Z,15.51
2022-07-29T15:21:14.814Z,15.51
2022-07-29T15:23:27.869Z,15.49
2022-07-29T15:25:40.937Z,15.45
2022-07-29T15:27:56.622Z,15.42
2022-07-29T15:30:31.432Z,15.43
2022-07-29T15:32:46.779Z,15.46
2022-07-29T15:34:59.742Z,15.49
2022-07-29T15:37:13.636Z,15.53
2022-07-29T15:39:26.809Z,15.57
2022-07-29T15:41:39.967Z,15.56
2022-07-29T15:43:53.237Z,15.58
2022-07-29T15:46:22.629Z,15.61
2022-07-29T15:48:35.863Z,15.59
2022-07-29T15:50:49.781Z,15.60
2022-07-29T15:53:02.921Z,15.65
2022-07-29T15:55:16.875Z,15.70
2022-07-29T15:57:30.095Z,15.72
2022-07-29T15:59:43.378Z,15.77
2022-07-29T16:01:56.529Z,15.75
2022-07-29T16:04:09.974Z,15.70
2022-07-29T16:06:23.083Z,15.70
2022-07-29T16:08:36.210Z,15.71
2022-07-29T16:10:49.759Z,15.74
2022-07-29T16:13:02.945Z,15.75
2022-07-29T16:15:16.547Z,15.78
2022-07-29T16:17:29.892Z,15.83
2022-07-29T16:19:43.045Z,15.87
2022-07-29T16:21:59.708Z,15.88
2022-07-29T16:24:14.076Z,15.88
2022-07-29T16:26:27.346Z,15.92
2022-07-29T16:28:40.759Z,15.95
2022-07-29T16:30:54.208Z,15.97
2022-07-29T16:33:08.446Z,15.97
2022-07-29T16:35:21.570Z,15.98
2022-07-29T16:37:36.691Z,15.99
2022-07-29T16:39:49.788Z,16.02
2022-07-29T16:42:05.246Z,16.05
2022-07-29T16:44:18.614Z,16.06
2022-07-29T16:46:31.652Z,16.08
2022-07-29T16:48:45.036Z,16.14
2022-07-29T16:50:58.671Z,16.19
2022-07-29T16:53:11.699Z,16.18
2022-07-29T16:55:24.845Z,16.16
2022-07-29T16:57:37.903Z,16.13
2022-07-29T16:59:52.176Z,16.10
2022-07-29T17:02:05.586Z,16.12
2022-07-29T17:04:18.783Z,16.19
2022-07-29T17:06:32.027Z,16.27
2022-07-29T17:08:45.410Z,16.34
2022-07-29T17:10:59.245Z,16.42
2022-07-29T17:13:12.477Z,16.44
2022-07-29T17:15:25.529Z,16.48
2022-07-29T17:17:54.849Z,16.51
2022-07-29T17:20:09.347Z,16.55
2022-07-29T17:22:22.456Z,16.59
2022-07-29T17:24:35.599Z,16.63
2022-07-29T17:26:48.885Z,16.71
2022-07-29T17:29:02.076Z,16.80
2022-07-29T17:31:15.768Z,16.89
2022-07-29T17:33:29.782Z,16.98
2022-07-29T17:35:59.222Z,17.08
2022-07-29T17:38:12.730Z,17.18
2022-07-29T17:40:25.987Z,17.27
2022-07-29T17:42:39.270Z,17.38
2022-07-29T17:44:52.413Z,17.44
2022-07-29T17:47:06.020Z,17.50
2022-07-29T17:49:20.954Z,17.56
2022-07-29T17:51:34.342Z,17.58
2022-07-29T17:53:47.956Z,17.57
2022-07-29T17:56:01.290Z,17.61
2022-07-29T17:58:14.451Z,17.65
2022-07-29T18:00:27.897Z,17.65
2022-07-29T18:02:41.141Z,17.67
2022-07-29T18:04:54.206Z,17.69
2022-07-29T18:07:07.314Z,17.71
2022-07-29T18:09:23.709Z,17.74
2022-07-29T18:11:37.681Z,17.79
2022-07-29T18:13:52.136Z,17.79
2022-07-29T18:16:05.659Z,17.77
2022-07-29T18:18:19.526Z,17.79
2022-07-29T18:20:32.921Z,17.85
2022-07-29T18:22:45.947Z,17.91
2022-07-29T18:24:58.929Z,17.94
2022-07-29T18:27:12.288Z,18.02
2022-07-29T18:29:25.358Z,18.07
2022-07-29T18:31:38.541Z,18.18
2022-07-29T18:33:51.638Z,18.19
2022-07-29T18:36:10.782Z,18.22
2022-07-29T18:38:25.097Z,18.27
2022-07-29T18:40:41.191Z,18.27
2022-07-29T18:42:54.205Z,18.22
2022-07-29T18:45:11.908Z,18.22
2022-07-29T18:47:32.504Z,18.21
2022-07-29T18:49:45.523Z,18.26
2022-07-29T18:51:59.385Z,18.24
2022-07-29T18:54:12.528Z,18.15
2022-07-29T18:56:25.524Z,18.21
2022-07-29T18:58:39.488Z,18.26
2022-07-29T19:00:52.581Z,18.33
2022-07-29T19:03:06.393Z,18.41
2022-07-29T19:05:19.557Z,18.44
2022-07-29T19:07:32.520Z,18.50
2022-07-29T19:09:49.399Z,18.62
2022-07-29T19:12:03.813Z,18.71
2022-07-29T19:14:16.948Z,18.71
2022-07-29T19:16:30.057Z,18.69
2022-07-29T19:18:44.327Z,18.78
2022-07-29T19:20:57.340Z,18.90
2022-07-29T19:23:10.401Z,18.94
2022-07-29T19:25:24.262Z,18.95
2022-07-29T19:27:37.306Z,18.92
2022-07-29T19:29:50.531Z,18.85
2022-07-29T19:32:03.529Z,18.80
2022-07-29T19:34:16.580Z,18.92
2022-07-29T19:36:29.677Z,18.99
2022-07-29T19:38:42.772Z,18.96
2022-07-29T19:40:55.735Z,18.84
2022-07-29T19:43:50.479Z,18.71
2022-07-29T19:45:42.729Z,18.61
2022-07-29T19:48:01.067Z,18.57
2022-07-29T19:50:16.491Z,18.51
2022-07-29T19:52:29.608Z,18.42
2022-07-29T19:54:42.545Z,18.45
2022-07-29T19:56:55.825Z,18.44
2022-07-29T19:59:08.907Z,18.47
2022-07-29T20:01:21.986Z,18.49
2022-07-29T20:03:35.116Z,18.55
2022-07-29T20:05:48.751Z,18.61
2022-07-29T20:08:01.732Z,18.69
2022-07-29T20:10:17.041Z,18.69
2022-07-29T20:12:30.233Z,18.76
2022-07-29T20:14:43.740Z,18.83
2022-07-29T20:16:56.869Z,18.88
2022-07-29T20:19:17.993Z,18.92
2022-07-29T20:21:35.137Z,18.94
2022-07-29T20:23:48.069Z,18.92
2022-07-29T20:26:01.132Z,18.92
2022-07-29T20:28:14.082Z,18.97
2022-07-29T20:30:27.480Z,19.01
2022-07-29T20:32:40.695Z,19.05
2022-07-29T20:34:53.721Z,18.96
2022-07-29T20:37:06.872Z,18.90
2022-07-29T20:39:19.819Z,18.81
2022-07-29T20:41:33.056Z,18.74
2022-07-29T20:43:46.708Z,18.67
2022-07-29T20:45:59.757Z,18.63
2022-07-29T20:48:14.653Z,18.73
2022-07-29T20:50:28.348Z,18.87
2022-07-29T20:52:42.235Z,19.03
2022-07-29T20:54:55.270Z,19.19
2022-07-29T20:57:08.311Z,19.25
2022-07-29T20:59:21.260Z,19.30
2022-07-29T21:01:34.326Z,19.29
2022-07-29T21:03:47.532Z,19.28
2022-07-29T21:06:00.575Z,19.33
2022-07-29T21:08:14.226Z,19.38
2022-07-29T21:10:27.421Z,19.39
2022-07-29T21:12:40.481Z,19.41
2022-07-29T21:14:53.562Z,19.45
2022-07-29T21:17:08.429Z,19.47
2022-07-29T21:19:39.897Z,19.51
2022-07-29T21:21:52.890Z,19.58
2022-07-29T21:24:05.943Z,19.62
2022-07-29T21:26:19.013Z,19.66
2022-07-29T21:28:39.631Z,19.63
2022-07-29T21:30:52.680Z,19.65
2022-07-29T21:33:06.177Z,19.70
2022-07-29T21:35:35.749Z,19.71
2022-07-29T21:37:52.708Z,19.72
2022-07-29T21:40:05.706Z,19.83
2022-07-29T21:42:18.932Z,19.82
2022-07-29T21:44:31.913Z,19.77
2022-07-29T21:46:44.932Z,19.68
2022-07-29T21:48:58.033Z,19.56
2022-07-29T21:51:11.187Z,19.32
2022-07-29T21:53:26.794Z,19.14
2022-07-29T21:55:40.279Z,19.15
2022-07-29T21:57:53.239Z,19.16
2022-07-29T22:00:06.773Z,19.07
2022-07-29T22:02:25.271Z,18.93
2022-07-29T22:04:38.434Z,18.82
2022-07-29T22:06:51.567Z,18.67
2022-07-29T22:09:04.587Z,18.50
2022-07-29T22:11:17.662Z,18.46
2022-07-29T22:13:33.261Z,18.40
2022-07-29T22:15:50.338Z,18.37
2022-07-29T22:18:03.894Z,18.40
2022-07-29T22:20:17.793Z,18.42
2022-07-29T22:22:31.256Z,18.46
2022-07-29T22:24:44.317Z,18.49
2022-07-29T22:26:57.462Z,18.52
2022-07-29T22:29:10.687Z,18.50
2022-07-29T22:31:23.907Z,18.46
2022-07-29T22:33:36.992Z,18.50
2022-07-29T22:35:50.258Z,18.51
2022-07-29T22:38:03.302Z,18.48
2022-07-29T22:40:18.585Z,18.60
2022-07-29T22:42:31.809Z,18.69
2022-07-29T22:44:44.935Z,18.68
2022-07-29T22:46:58.120Z,18.67
2022-07-29T22:49:11.527Z,18.72
2022-07-29T22:51:24.721Z,18.77
2022-07-29T22:53:37.955Z,18.87
2022-07-29T22:55:51.010Z,19.00
2022-07-29T22:58:03.983Z,19.06
2022-07-29T23:00:18.680Z,19.14
2022-07-29T23:02:31.637Z,19.17
2022-07-29T23:04:44.658Z,19.13
2022-07-29T23:06:58.056Z,19.11
2022-07-29T23:09:13.350Z,19.04
2022-07-29T23:11:26.334Z,18.97
2022-07-29T23:13:41.311Z,18.98
2022-07-29T23:15:54.362Z,18.88
2022-07-29T23:18:07.403Z,18.84
2022-07-29T23:20:20.490Z,18.84
2022-07-29T23:22:33.572Z,18.75
2022-07-29T23:24:46.577Z,18.80
2022-07-29T23:26:59.900Z,18.88
2022-07-29T23:29:13.298Z,18.90
2022-07-29T23:31:26.991Z,18.92
2022-07-29T23:33:39.979Z,18.92
2022-07-29T23:35:52.990Z,18.92
2022-07-29T23:38:05.996Z,18.96
2022-07-29T23:40:19.850Z,19.00
2022-07-29T23:42:33.341Z,19.08
2022-07-29T23:44:46.334Z,19.24
2022-07-29T23:46:59.645Z,19.30
2022-07-29T23:49:12.899Z,19.34
2022-07-29T23:51:26.055Z,19.35
2022-07-29T23:53:53.853Z,19.31
2022-07-29T23:56:07.334Z,19.26
2022-07-29T23:58:20.330Z,19.23
